Time;durP1;ratioP1;P1;durP2;ratioP2;P2;SDS_P1;SDS_P2;PMS_P1;PMS_P2;Temp;Humidity;BMP_temperature;BMP_pressure;BME280_temperature;BME280_humidity;BME280_pressure;Samples;Min_cycle;Max_cycle;Signal;HPM_P1;HPM_P2
2023/08/25 00:01:30;;;;;;;6.65;4.07;;;;;;;;;;5097920;28;20228;-70
2023/08/25 00:03:58;;;;;;;5.15;3.90;;;;;;;;;;5097946;28;20224;-70
2023/08/25 00:06:25;;;;;;;8.73;4.30;;;;;;;;;;5098236;28;20781;-70
2023/08/25 00:08:53;;;;;;;5.13;3.75;;;;;;;;;;5097326;28;20204;-69
2023/08/25 00:11:21;;;;;;;7.50;3.90;;;;;;;;;;5093339;28;20221;-70
2023/08/25 00:13:48;;;;;;;9.25;4.18;;;;;;;;;;5098128;28;20637;-70
2023/08/25 00:16:16;;;;;;;6.88;4.55;;;;;;;;;;5097916;28;20259;-71
2023/08/25 00:18:46;;;;;;;8.13;4.10;;;;;;;;;;5098120;28;20217;-70
2023/08/25 00:21:15;;;;;;;6.55;4.05;;;;;;;;;;5097818;28;20595;-70
2023/08/25 00:23:43;;;;;;;4.38;3.83;;;;;;;;;;5097938;28;20316;-69
2023/08/25 00:26:11;;;;;;;7.40;4.13;;;;;;;;;;5097008;28;20781;-70
2023/08/25 00:28:38;;;;;;;9.18;4.18;;;;;;;;;;5097949;28;20201;-70
2023/08/25 00:31:07;;;;;;;6.43;4.28;;;;;;;;;;5097749;28;20225;-68
2023/08/25 00:33:37;;;;;;;8.43;4.72;;;;;;;;;;5095908;28;20193;-68
2023/08/25 00:36:09;;;;;;;7.13;5.53;;;;;;;;;;5084276;28;20197;-68
2023/08/25 00:38:37;;;;;;;14.35;5.97;;;;;;;;;;5096917;28;20228;-69
2023/08/25 00:41:05;;;;;;;8.13;5.63;;;;;;;;;;5094839;28;20295;-69
2023/08/25 00:43:33;;;;;;;11.52;5.40;;;;;;;;;;5097918;28;20288;-70
2023/08/25 00:46:01;;;;;;;6.97;5.28;;;;;;;;;;5097062;28;21622;-69
2023/08/25 00:48:29;;;;;;;5.68;4.82;;;;;;;;;;5097996;28;20211;-70
2023/08/25 00:50:58;;;;;;;5.60;4.68;;;;;;;;;;5095220;28;20744;-70
2023/08/25 00:53:27;;;;;;;6.88;4.75;;;;;;;;;;5101247;28;20201;-70
2023/08/25 00:55:55;;;;;;;7.18;4.43;;;;;;;;;;5099328;28;20201;-69
2023/08/25 00:58:23;;;;;;;6.38;4.18;;;;;;;;;;5100848;28;20200;-70
2023/08/25 01:00:51;;;;;;;7.15;4.25;;;;;;;;;;5100578;28;20244;-70
2023/08/25 01:03:19;;;;;;;7.20;4.13;;;;;;;;;;5101753;28;20212;-69
2023/08/25 01:05:48;;;;;;;6.97;4.47;;;;;;;;;;5100536;28;20221;-71
2023/08/25 01:08:16;;;;;;;8.55;4.68;;;;;;;;;;5099802;28;20214;-70
2023/08/25 01:10:50;;;;;;;8.60;4.43;;;;;;;;;;5100030;28;20260;-70
2023/08/25 01:13:21;;;;;;;5.60;4.40;;;;;;;;;;5098732;28;20284;-70
2023/08/25 01:15:51;;;;;;;5.72;3.78;;;;;;;;;;5099208;28;20198;-70
2023/08/25 01:18:24;;;;;;;5.47;4.70;;;;;;;;;;5100740;28;20762;-69
2023/08/25 01:20:52;;;;;;;5.57;4.25;;;;;;;;;;5097933;28;20235;-69
2023/08/25 01:23:27;;;;;;;6.95;4.60;;;;;;;;;;5100123;28;20601;-69
2023/08/25 01:25:56;;;;;;;4.72;3.90;;;;;;;;;;5100370;28;20230;-70
2023/08/25 01:28:25;;;;;;;7.38;4.22;;;;;;;;;;5100082;28;20243;-69
2023/08/25 01:30:55;;;;;;;4.47;3.72;;;;;;;;;;5100213;28;20221;-69
2023/08/25 01:33:25;;;;;;;7.05;4.03;;;;;;;;;;5100934;28;20259;-69
2023/08/25 01:35:59;;;;;;;6.22;3.78;;;;;;;;;;5095726;28;20209;-69
2023/08/25 01:38:29;;;;;;;6.00;3.72;;;;;;;;;;5089640;28;20232;-69
2023/08/25 01:41:03;;;;;;;7.07;3.95;;;;;;;;;;5099713;28;20221;-69
2023/08/25 01:43:38;;;;;;;4.40;4.00;;;;;;;;;;5098767;28;20279;-69
2023/08/25 01:46:06;;;;;;;3.65;3.35;;;;;;;;;;5099692;28;20678;-68
2023/08/25 01:48:36;;;;;;;4.18;3.78;;;;;;;;;;5100892;28;20211;-69
2023/08/25 01:51:03;;;;;;;5.90;4.25;;;;;;;;;;5096849;28;20312;-68
2023/08/25 01:53:32;;;;;;;4.38;3.60;;;;;;;;;;5099899;28;20284;-68
2023/08/25 01:56:01;;;;;;;6.97;3.85;;;;;;;;;;5099093;28;20631;-69
2023/08/25 01:58:29;;;;;;;3.78;3.47;;;;;;;;;;5100640;28;20205;-69
2023/08/25 02:00:57;;;;;;;4.03;3.42;;;;;;;;;;5097149;28;20239;-69
2023/08/25 02:03:25;;;;;;;4.85;3.63;;;;;;;;;;5099149;28;20228;-67
2023/08/25 02:05:52;;;;;;;5.55;3.50;;;;;;;;;;5100048;28;20237;-68
2023/08/25 02:08:20;;;;;;;4.28;3.55;;;;;;;;;;5099359;28;20201;-69
2023/08/25 02:10:48;;;;;;;5.15;3.67;;;;;;;;;;5095377;28;20316;-69
2023/08/25 02:13:17;;;;;;;5.78;3.75;;;;;;;;;;5100376;28;20656;-67
2023/08/25 02:15:46;;;;;;;5.00;3.45;;;;;;;;;;5100333;28;20229;-68
2023/08/25 02:18:14;;;;;;;4.00;3.40;;;;;;;;;;5100161;28;20585;-68
2023/08/25 02:20:42;;;;;;;5.57;3.92;;;;;;;;;;5100032;28;20235;-70
2023/08/25 02:23:09;;;;;;;5.88;3.55;;;;;;;;;;5100079;28;20209;-68
2023/08/25 02:25:37;;;;;;;4.43;3.72;;;;;;;;;;5099551;28;20229;-68
2023/08/25 02:28:05;;;;;;;3.72;3.20;;;;;;;;;;5100232;28;20775;-68
2023/08/25 02:30:34;;;;;;;3.78;3.30;;;;;;;;;;5099208;28;20669;-69
2023/08/25 02:33:02;;;;;;;4.00;3.67;;;;;;;;;;5099710;28;20205;-69
2023/08/25 02:35:30;;;;;;;5.57;3.97;;;;;;;;;;5098909;28;20201;-68
2023/08/25 02:37:59;;;;;;;7.57;3.92;;;;;;;;;;5098976;28;20246;-68
2023/08/25 02:40:27;;;;;;;5.00;3.72;;;;;;;;;;5098919;28;20305;-69
2023/08/25 02:42:55;;;;;;;3.60;3.25;;;;;;;;;;5098866;28;20193;-68
2023/08/25 02:45:23;;;;;;;5.40;3.97;;;;;;;;;;5098522;28;20308;-69
2023/08/25 02:47:52;;;;;;;4.93;3.78;;;;;;;;;;5098887;28;20611;-69
2023/08/25 02:50:21;;;;;;;4.35;3.95;;;;;;;;;;5097049;28;20247;-67
2023/08/25 02:52:49;;;;;;;7.22;3.80;;;;;;;;;;5099313;28;20215;-69
2023/08/25 02:55:19;;;;;;;4.00;3.53;;;;;;;;;;5098684;28;20201;-67
2023/08/25 02:57:47;;;;;;;5.47;4.63;;;;;;;;;;5098637;28;20201;-68
2023/08/25 03:00:20;;;;;;;3.67;3.28;;;;;;;;;;5096420;28;20240;-68
2023/08/25 03:02:49;;;;;;;4.88;3.85;;;;;;;;;;5099401;28;20209;-70
2023/08/25 03:05:18;;;;;;;7.00;3.90;;;;;;;;;;5097770;28;20680;-69
2023/08/25 03:07:46;;;;;;;5.82;3.67;;;;;;;;;;5099145;28;20201;-69
2023/08/25 03:10:14;;;;;;;3.90;3.42;;;;;;;;;;5095686;28;20245;-69
2023/08/25 03:12:41;;;;;;;4.80;3.20;;;;;;;;;;5099301;28;20219;-69
2023/08/25 03:15:09;;;;;;;6.05;3.70;;;;;;;;;;5097849;28;20213;-68
2023/08/25 03:17:37;;;;;;;5.88;3.22;;;;;;;;;;5099182;28;20205;-69
2023/08/25 03:20:06;;;;;;;4.18;3.60;;;;;;;;;;5097884;28;20716;-69
2023/08/25 03:22:35;;;;;;;4.90;3.33;;;;;;;;;;5097534;28;20197;-69
2023/08/25 03:25:03;;;;;;;3.67;3.38;;;;;;;;;;5098238;28;20290;-68
2023/08/25 03:27:32;;;;;;;4.57;3.40;;;;;;;;;;5098734;28;20213;-67
2023/08/25 03:30:00;;;;;;;3.25;3.05;;;;;;;;;;5098006;28;20235;-68
2023/08/25 03:32:28;;;;;;;6.10;3.38;;;;;;;;;;5098563;28;20208;-68
2023/08/25 03:34:56;;;;;;;4.72;3.33;;;;;;;;;;5097491;28;20201;-68
2023/08/25 03:37:23;;;;;;;4.20;3.72;;;;;;;;;;5098670;28;20721;-68
2023/08/25 03:39:53;;;;;;;3.88;3.45;;;;;;;;;;5097776;28;20211;-68
2023/08/25 03:42:20;;;;;;;4.30;3.40;;;;;;;;;;5098319;28;20280;-68
2023/08/25 03:44:48;;;;;;;3.85;3.45;;;;;;;;;;5097458;28;20198;-68
2023/08/25 03:47:16;;;;;;;7.13;4.05;;;;;;;;;;5097250;28;20217;-67
2023/08/25 03:49:44;;;;;;;6.80;3.75;;;;;;;;;;5096112;28;20217;-67
2023/08/25 03:52:12;;;;;;;4.88;3.53;;;;;;;;;;5095229;28;20192;-68
2023/08/25 03:54:40;;;;;;;8.68;3.17;;;;;;;;;;5095984;28;20209;-69
2023/08/25 03:57:09;;;;;;;4.65;4.25;;;;;;;;;;5096943;28;20228;-68
2023/08/25 03:59:37;;;;;;;3.90;3.50;;;;;;;;;;5097661;28;20631;-67
2023/08/25 04:02:05;;;;;;;5.43;3.55;;;;;;;;;;5094486;28;20311;-68
2023/08/25 04:04:33;;;;;;;4.07;3.28;;;;;;;;;;5095691;28;20558;-67
2023/08/25 04:07:02;;;;;;;5.65;3.25;;;;;;;;;;5097145;28;20217;-67
2023/08/25 04:09:31;;;;;;;4.95;3.45;;;;;;;;;;5085925;28;20201;-68
2023/08/25 04:11:59;;;;;;;3.97;3.55;;;;;;;;;;5089516;28;20212;-67
2023/08/25 04:14:28;;;;;;;4.68;3.60;;;;;;;;;;5098216;28;20205;-68
2023/08/25 04:16:56;;;;;;;5.85;3.05;;;;;;;;;;5098127;28;20668;-67
2023/08/25 04:19:24;;;;;;;4.78;3.92;;;;;;;;;;5097928;28;20209;-63
2023/08/25 04:21:51;;;;;;;5.45;3.25;;;;;;;;;;5098042;28;20225;-64
2023/08/25 04:24:19;;;;;;;6.82;3.28;;;;;;;;;;5096992;28;20296;-64
2023/08/25 04:26:47;;;;;;;5.53;4.35;;;;;;;;;;5097236;28;20759;-63
2023/08/25 04:29:15;;;;;;;3.97;3.67;;;;;;;;;;5097987;28;20216;-63
2023/08/25 04:31:44;;;;;;;3.58;3.28;;;;;;;;;;5096472;28;20253;-64
2023/08/25 04:34:12;;;;;;;4.22;3.60;;;;;;;;;;5096169;28;20289;-63
2023/08/25 04:36:40;;;;;;;5.80;3.55;;;;;;;;;;5097660;28;20573;-63
2023/08/25 04:39:08;;;;;;;7.40;3.63;;;;;;;;;;5096876;28;20209;-62
2023/08/25 04:41:36;;;;;;;4.25;3.22;;;;;;;;;;5093576;28;20221;-63
2023/08/25 04:44:04;;;;;;;5.20;3.28;;;;;;;;;;5095821;28;20263;-63
2023/08/25 04:46:32;;;;;;;5.85;3.42;;;;;;;;;;5096837;28;20821;-63
2023/08/25 04:49:02;;;;;;;4.75;4.35;;;;;;;;;;5096562;28;20209;-63
2023/08/25 04:51:30;;;;;;;3.95;3.35;;;;;;;;;;5086036;28;20591;-62
2023/08/25 04:53:58;;;;;;;4.60;3.60;;;;;;;;;;5093392;28;20197;-63
2023/08/25 04:56:25;;;;;;;4.30;3.90;;;;;;;;;;5096951;28;20280;-63
2023/08/25 04:58:53;;;;;;;5.43;3.63;;;;;;;;;;5096669;28;20564;-62
2023/08/25 05:01:21;;;;;;;4.47;3.70;;;;;;;;;;5096646;28;20245;-62
2023/08/25 05:03:49;;;;;;;7.10;4.13;;;;;;;;;;5096395;28;20649;-63
2023/08/25 05:06:18;;;;;;;7.50;3.50;;;;;;;;;;5095618;28;20214;-63
2023/08/25 05:08:46;;;;;;;4.80;3.95;;;;;;;;;;5095434;28;20201;-64
2023/08/25 05:11:14;;;;;;;7.55;3.90;;;;;;;;;;5096243;28;20231;-63
2023/08/25 05:13:42;;;;;;;4.63;3.35;;;;;;;;;;5096727;28;20212;-65
2023/08/25 05:16:10;;;;;;;3.35;3.05;;;;;;;;;;5095681;28;20234;-67
2023/08/25 05:18:37;;;;;;;3.70;3.40;;;;;;;;;;5096774;28;20201;-66
2023/08/25 05:21:06;;;;;;;4.35;3.58;;;;;;;;;;5094845;28;20624;-68
2023/08/25 05:23:36;;;;;;;4.80;3.35;;;;;;;;;;5091778;28;20569;-67
2023/08/25 05:26:04;;;;;;;4.95;3.65;;;;;;;;;;5093579;28;20202;-68
2023/08/25 05:28:32;;;;;;;4.82;3.63;;;;;;;;;;5096362;28;20202;-68
2023/08/25 05:31:00;;;;;;;6.00;3.92;;;;;;;;;;5096103;28;20225;-68
2023/08/25 05:33:28;;;;;;;4.72;3.47;;;;;;;;;;5097013;28;20286;-68
2023/08/25 05:35:58;;;;;;;7.95;4.85;;;;;;;;;;5092646;28;20213;-68
2023/08/25 05:38:26;;;;;;;6.50;3.60;;;;;;;;;;5094988;28;20201;-69
2023/08/25 05:40:56;;;;;;;4.70;3.80;;;;;;;;;;5096897;28;20757;-67
2023/08/25 05:43:24;;;;;;;5.63;3.78;;;;;;;;;;5100905;28;20209;-70
2023/08/25 05:45:52;;;;;;;4.60;3.85;;;;;;;;;;5099787;28;20221;-69
2023/08/25 05:48:20;;;;;;;5.13;3.83;;;;;;;;;;5099482;28;20225;-68
2023/08/25 05:50:48;;;;;;;3.80;3.50;;;;;;;;;;5096744;28;20218;-69
2023/08/25 05:53:15;;;;;;;4.35;3.95;;;;;;;;;;5098714;28;20206;-68
2023/08/25 05:55:43;;;;;;;3.90;3.50;;;;;;;;;;5099453;28;20229;-68
2023/08/25 05:58:13;;;;;;;4.07;3.47;;;;;;;;;;5100652;28;20681;-67
2023/08/25 06:00:41;;;;;;;6.25;3.70;;;;;;;;;;5098952;28;20247;-67
2023/08/25 06:03:09;;;;;;;6.85;4.07;;;;;;;;;;5100229;28;20207;-68
2023/08/25 06:05:37;;;;;;;6.13;3.65;;;;;;;;;;5099333;28;20300;-67
2023/08/25 06:08:05;;;;;;;4.18;3.78;;;;;;;;;;5100014;28;20218;-68
2023/08/25 06:10:35;;;;;;;5.03;4.00;;;;;;;;;;5096741;28;20703;-67
2023/08/25 06:13:03;;;;;;;5.75;3.60;;;;;;;;;;5100135;28;20654;-68
2023/08/25 06:15:32;;;;;;;7.68;4.00;;;;;;;;;;5100371;28;20615;-69
2023/08/25 06:18:00;;;;;;;7.22;4.05;;;;;;;;;;5100419;28;20198;-69
2023/08/25 06:20:29;;;;;;;4.57;3.83;;;;;;;;;;5099876;28;20237;-69
2023/08/25 06:22:58;;;;;;;9.73;3.90;;;;;;;;;;5099203;28;20238;-69
2023/08/25 06:25:26;;;;;;;9.65;4.00;;;;;;;;;;5099923;28;20653;-69
2023/08/25 06:27:54;;;;;;;6.50;3.97;;;;;;;;;;5098920;28;20223;-69
2023/08/25 06:30:22;;;;;;;5.20;3.70;;;;;;;;;;5098808;28;20295;-69
2023/08/25 06:32:52;;;;;;;5.43;3.80;;;;;;;;;;5098970;28;20209;-68
2023/08/25 06:35:20;;;;;;;5.75;4.05;;;;;;;;;;5099239;28;20276;-69
2023/08/25 06:37:48;;;;;;;8.25;4.40;;;;;;;;;;5099023;28;20333;-69
2023/08/25 06:40:16;;;;;;;7.40;4.68;;;;;;;;;;5098669;28;20772;-69
2023/08/25 06:42:44;;;;;;;6.25;3.97;;;;;;;;;;5098504;28;20255;-69
2023/08/25 06:45:12;;;;;;;4.85;4.05;;;;;;;;;;5085045;28;20203;-69
2023/08/25 06:47:40;;;;;;;8.10;3.75;;;;;;;;;;5098785;28;20223;-69
2023/08/25 06:50:10;;;;;;;7.50;3.63;;;;;;;;;;5096525;28;20219;-69
2023/08/25 06:52:40;;;;;;;4.88;4.05;;;;;;;;;;5098823;28;20230;-69
2023/08/25 06:55:09;;;;;;;7.97;4.00;;;;;;;;;;5096511;28;20550;-69
2023/08/25 06:57:37;;;;;;;12.35;4.45;;;;;;;;;;5099677;28;20195;-69
2023/08/25 07:00:06;;;;;;;7.88;4.28;;;;;;;;;;5097387;28;20228;-64
2023/08/25 07:02:35;;;;;;;5.18;3.70;;;;;;;;;;5098283;28;20200;-64
2023/08/25 07:05:04;;;;;;;10.35;4.40;;;;;;;;;;5097133;28;20208;-64
2023/08/25 07:07:33;;;;;;;6.63;4.25;;;;;;;;;;5099338;28;20258;-64
2023/08/25 07:16:45;;;;;;;8.20;5.25;;;;;;;;;;5095529;28;20243;-63
2023/08/25 07:19:14;;;;;;;9.68;5.22;;;;;;;;;;5098024;28;20197;-64
2023/08/25 07:21:43;;;;;;;13.30;4.53;;;;;;;;;;5098765;28;20225;-63
2023/08/25 07:24:12;;;;;;;20.60;6.30;;;;;;;;;;5097557;28;20292;-64
2023/08/25 07:26:40;;;;;;;13.52;5.80;;;;;;;;;;5096733;28;20661;-63
2023/08/25 07:29:08;;;;;;;14.88;4.57;;;;;;;;;;5092657;28;20229;-64
2023/08/25 07:31:36;;;;;;;6.95;4.60;;;;;;;;;;5091434;28;20228;-64
2023/08/25 07:34:04;;;;;;;12.85;4.65;;;;;;;;;;5096916;28;20197;-65
2023/08/25 07:36:32;;;;;;;10.90;5.07;;;;;;;;;;5098886;28;20209;-64
2023/08/25 07:39:00;;;;;;;10.73;5.35;;;;;;;;;;5098030;28;20216;-65
2023/08/25 07:41:30;;;;;;;8.13;4.45;;;;;;;;;;5098108;28;20228;-65
2023/08/25 07:43:58;;;;;;;11.02;4.60;;;;;;;;;;5084753;28;20209;-65
2023/08/25 07:46:27;;;;;;;9.25;4.70;;;;;;;;;;5098554;28;20553;-64
2023/08/25 07:48:55;;;;;;;4.93;4.22;;;;;;;;;;5097019;28;20223;-65
2023/08/25 07:51:23;;;;;;;5.70;4.70;;;;;;;;;;5096075;28;20264;-65
2023/08/25 07:54:07;;;;;;;4.87;4.40;;;;;;;;;;5097560;28;20205;-63
2023/08/25 07:56:37;;;;;;;6.53;4.55;;;;;;;;;;5094813;28;20663;-63
2023/08/25 07:59:05;;;;;;;5.95;4.10;;;;;;;;;;5098282;28;20203;-64
2023/08/25 08:01:33;;;;;;;7.07;5.05;;;;;;;;;;5092339;28;20650;-64
2023/08/25 08:04:02;;;;;;;7.30;4.65;;;;;;;;;;5096823;28;20195;-63
2023/08/25 08:06:34;;;;;;;4.95;4.45;;;;;;;;;;5093334;28;20205;-63
2023/08/25 08:09:03;;;;;;;7.43;4.50;;;;;;;;;;5093631;28;20221;-65
2023/08/25 08:11:31;;;;;;;7.88;4.57;;;;;;;;;;5096649;28;20256;-63
2023/08/25 08:14:00;;;;;;;11.02;4.90;;;;;;;;;;5097329;28;20204;-65
2023/08/25 08:16:29;;;;;;;10.32;4.60;;;;;;;;;;5095971;28;20232;-65
2023/08/25 08:18:58;;;;;;;8.00;5.22;;;;;;;;;;5096874;28;20690;-65
2023/08/25 08:21:26;;;;;;;6.55;4.20;;;;;;;;;;5097988;28;20278;-65
2023/08/25 08:23:55;;;;;;;4.95;4.45;;;;;;;;;;5096746;28;20205;-65
2023/08/25 08:26:23;;;;;;;7.38;4.38;;;;;;;;;;5096943;28;20209;-66
2023/08/25 08:28:51;;;;;;;4.80;4.35;;;;;;;;;;5095876;28;20714;-66
2023/08/25 08:31:20;;;;;;;7.13;3.85;;;;;;;;;;5097852;28;20229;-65
2023/08/25 08:33:49;;;;;;;4.40;3.67;;;;;;;;;;5096615;28;20625;-67
2023/08/25 08:36:17;;;;;;;3.53;3.22;;;;;;;;;;5097990;28;20205;-67
2023/08/25 08:38:45;;;;;;;5.30;3.90;;;;;;;;;;5096626;28;20235;-69
2023/08/25 08:41:15;;;;;;;4.30;3.20;;;;;;;;;;5096719;28;20674;-68
2023/08/25 08:43:45;;;;;;;6.80;3.78;;;;;;;;;;5097030;28;20234;-67
2023/08/25 08:46:14;;;;;;;6.97;4.40;;;;;;;;;;5096520;28;20607;-66
2023/08/25 08:48:44;;;;;;;9.13;3.70;;;;;;;;;;5096645;28;20264;-66
2023/08/25 08:51:14;;;;;;;4.53;3.83;;;;;;;;;;5094396;28;20230;-66
2023/08/25 08:53:42;;;;;;;4.77;3.47;;;;;;;;;;5095586;28;20201;-65
2023/08/25 08:56:11;;;;;;;3.90;3.50;;;;;;;;;;5096636;28;20211;-65
2023/08/25 08:58:39;;;;;;;5.37;3.60;;;;;;;;;;5096719;28;20199;-65
2023/08/25 09:01:09;;;;;;;4.00;3.60;;;;;;;;;;5089986;28;20250;-64
2023/08/25 09:03:39;;;;;;;5.60;3.50;;;;;;;;;;5095935;28;20664;-65
2023/08/25 09:06:08;;;;;;;5.90;3.77;;;;;;;;;;5096535;28;20204;-66
2023/08/25 09:08:36;;;;;;;6.20;3.67;;;;;;;;;;5095888;28;20230;-64
2023/08/25 09:11:05;;;;;;;3.80;3.50;;;;;;;;;;5094295;28;20252;-64
2023/08/25 09:13:34;;;;;;;6.67;3.87;;;;;;;;;;5099202;28;20257;-64
2023/08/25 09:16:10;;;;;;;4.20;3.37;;;;;;;;;;5099719;28;20281;-64
2023/08/25 09:18:38;;;;;;;5.47;3.77;;;;;;;;;;5094975;28;20196;-65
2023/08/25 09:21:17;;;;;;;5.37;2.90;;;;;;;;;;5096325;28;20303;-64
2023/08/25 09:23:55;;;;;;;5.00;3.38;;;;;;;;;;5100246;28;20202;-65
2023/08/25 09:26:24;;;;;;;5.97;3.47;;;;;;;;;;5100854;28;20201;-67
2023/08/25 09:28:53;;;;;;;3.60;3.27;;;;;;;;;;5096628;28;20219;-64
2023/08/25 09:31:21;;;;;;;8.87;3.70;;;;;;;;;;5096190;28;20274;-65
2023/08/25 09:33:50;;;;;;;4.13;3.70;;;;;;;;;;5095043;28;20217;-67
2023/08/25 09:36:20;;;;;;;3.57;2.97;;;;;;;;;;5097857;28;20603;-69
2023/08/25 09:38:48;;;;;;;6.87;3.23;;;;;;;;;;5096602;28;20204;-69
2023/08/25 09:41:24;;;;;;;4.90;2.80;;;;;;;;;;5096038;28;20223;-69
2023/08/25 09:43:56;;;;;;;7.70;3.10;;;;;;;;;;5096636;28;20237;-68
2023/08/25 09:46:27;;;;;;;6.13;2.80;;;;;;;;;;5097581;28;20198;-68
2023/08/25 09:49:01;;;;;;;4.47;3.00;;;;;;;;;;5098603;28;20213;-68
2023/08/25 09:51:35;;;;;;;4.27;2.97;;;;;;;;;;5098436;28;20229;-68
2023/08/25 09:54:06;;;;;;;6.97;2.87;;;;;;;;;;5099011;28;20225;-67
2023/08/25 09:56:35;;;;;;;5.17;3.03;;;;;;;;;;5097456;28;20201;-70
2023/08/25 09:59:04;;;;;;;5.60;2.80;;;;;;;;;;5098470;28;20571;-68
2023/08/25 10:01:32;;;;;;;11.57;4.35;;;;;;;;;;5097250;28;20286;-70
2023/08/25 10:04:00;;;;;;;5.85;2.70;;;;;;;;;;5099210;28;20251;-69
2023/08/25 10:06:30;;;;;;;4.77;2.97;;;;;;;;;;5099498;28;20252;-70
2023/08/25 10:09:01;;;;;;;4.40;3.23;;;;;;;;;;5098698;28;20568;-70
2023/08/25 10:11:30;;;;;;;3.97;2.47;;;;;;;;;;5096687;28;20249;-69
2023/08/25 10:14:02;;;;;;;4.40;2.42;;;;;;;;;;5099369;28;20195;-67
2023/08/25 10:16:32;;;;;;;2.92;2.70;;;;;;;;;;5099041;28;20244;-68
2023/08/25 10:19:02;;;;;;;4.47;2.97;;;;;;;;;;5099272;28;20202;-67
2023/08/25 10:21:31;;;;;;;3.35;2.53;;;;;;;;;;5099349;28;20226;-67
2023/08/25 10:24:01;;;;;;;2.85;2.65;;;;;;;;;;5098800;28;20970;-67
2023/08/25 10:26:30;;;;;;;5.72;2.95;;;;;;;;;;5097586;28;20194;-68
2023/08/25 10:28:58;;;;;;;5.82;2.72;;;;;;;;;;5086873;28;20212;-68
2023/08/25 10:31:30;;;;;;;4.38;2.75;;;;;;;;;;5098851;28;20236;-68
2023/08/25 10:34:00;;;;;;;3.95;2.80;;;;;;;;;;5089459;28;20211;-67
2023/08/25 10:36:28;;;;;;;6.90;2.83;;;;;;;;;;5099625;28;20699;-67
2023/08/25 10:39:09;;;;;;;3.75;3.00;;;;;;;;;;5097375;28;20567;-67
2023/08/25 10:41:41;;;;;;;4.60;3.17;;;;;;;;;;5099131;28;20222;-67
2023/08/25 10:44:09;;;;;;;4.30;2.90;;;;;;;;;;5098621;28;20658;-67
2023/08/25 10:46:37;;;;;;;4.35;2.83;;;;;;;;;;5098290;28;20663;-67
2023/08/25 10:49:15;;;;;;;5.18;2.90;;;;;;;;;;5097315;28;20233;-67
2023/08/25 10:51:44;;;;;;;4.50;2.80;;;;;;;;;;5098509;28;20223;-67
2023/08/25 10:54:20;;;;;;;6.45;2.50;;;;;;;;;;5098617;28;20200;-67
2023/08/25 10:56:52;;;;;;;5.47;2.88;;;;;;;;;;5098350;28;20666;-67
2023/08/25 10:59:21;;;;;;;4.45;2.63;;;;;;;;;;5097409;28;20375;-67
2023/08/25 11:01:59;;;;;;;6.45;2.65;;;;;;;;;;5098381;28;20242;-67
2023/08/25 11:04:29;;;;;;;4.03;2.40;;;;;;;;;;5098007;28;20221;-67
2023/08/25 11:06:58;;;;;;;2.88;2.58;;;;;;;;;;5097911;28;20653;-67
2023/08/25 11:09:32;;;;;;;2.95;2.63;;;;;;;;;;5096572;28;20225;-67
2023/08/25 11:12:03;;;;;;;4.43;2.78;;;;;;;;;;5098871;28;20205;-67
2023/08/25 11:14:32;;;;;;;3.00;2.70;;;;;;;;;;5098373;28;20205;-67
2023/08/25 11:17:01;;;;;;;3.50;2.50;;;;;;;;;;5098488;28;20205;-67
2023/08/25 11:19:32;;;;;;;4.15;2.90;;;;;;;;;;5097996;28;20255;-67
2023/08/25 11:22:00;;;;;;;3.17;2.78;;;;;;;;;;5097862;28;20206;-67
2023/08/25 11:24:30;;;;;;;3.63;2.90;;;;;;;;;;5097642;28;20223;-67
2023/08/25 11:27:05;;;;;;;5.10;3.28;;;;;;;;;;5097951;28;20201;-66
2023/08/25 11:29:33;;;;;;;4.47;2.90;;;;;;;;;;5096478;28;20566;-66
2023/08/25 11:32:01;;;;;;;3.25;2.50;;;;;;;;;;5097803;28;20246;-67
2023/08/25 11:34:30;;;;;;;3.58;2.72;;;;;;;;;;5097809;28;20208;-66
2023/08/25 11:36:58;;;;;;;2.95;2.45;;;;;;;;;;5098203;28;20209;-66
2023/08/25 11:39:26;;;;;;;3.17;2.47;;;;;;;;;;5097465;28;20197;-66
2023/08/25 11:41:54;;;;;;;5.32;2.78;;;;;;;;;;5097412;28;20587;-67
2023/08/25 11:44:24;;;;;;;4.00;2.65;;;;;;;;;;5097275;28;20202;-66
2023/08/25 11:46:53;;;;;;;4.45;2.72;;;;;;;;;;5097077;28;20567;-68
2023/08/25 11:49:27;;;;;;;3.92;2.97;;;;;;;;;;5097223;28;20655;-66
2023/08/25 11:51:55;;;;;;;3.03;2.83;;;;;;;;;;5095291;28;20217;-66
2023/08/25 11:54:23;;;;;;;3.90;3.60;;;;;;;;;;5097716;28;20209;-66
2023/08/25 11:56:52;;;;;;;7.28;6.28;;;;;;;;;;5093761;28;20224;-66
2023/08/25 11:59:20;;;;;;;6.25;4.00;;;;;;;;;;5085661;28;20621;-66
2023/08/25 12:01:51;;;;;;;11.48;6.60;;;;;;;;;;5091386;28;20307;-67
2023/08/25 12:04:24;;;;;;;4.20;3.63;;;;;;;;;;5094362;28;20228;-65
2023/08/25 12:06:53;;;;;;;5.30;3.35;;;;;;;;;;5098015;28;20201;-66
2023/08/25 12:09:21;;;;;;;5.28;4.10;;;;;;;;;;5097858;28;20204;-66
2023/08/25 12:11:50;;;;;;;4.82;3.85;;;;;;;;;;5089316;28;20235;-67
2023/08/25 12:14:24;;;;;;;4.03;3.72;;;;;;;;;;5108660;28;20204;-67
2023/08/25 12:16:54;;;;;;;5.20;3.53;;;;;;;;;;5097910;28;20208;-66
2023/08/25 12:19:26;;;;;;;5.03;3.38;;;;;;;;;;5094670;28;20229;-66
2023/08/25 12:21:55;;;;;;;6.22;3.72;;;;;;;;;;5089864;28;20217;-66
2023/08/25 12:24:23;;;;;;;4.22;3.90;;;;;;;;;;5097992;28;20209;-66
2023/08/25 12:26:51;;;;;;;6.15;3.72;;;;;;;;;;5097901;28;20209;-66
2023/08/25 12:29:20;;;;;;;4.30;3.60;;;;;;;;;;5097902;28;20213;-67
2023/08/25 12:31:48;;;;;;;7.43;4.00;;;;;;;;;;5094478;28;20229;-66
2023/08/25 12:34:17;;;;;;;3.90;3.50;;;;;;;;;;5096845;28;20209;-67
2023/08/25 12:36:45;;;;;;;4.68;4.03;;;;;;;;;;5097088;28;20209;-66
2023/08/25 12:39:13;;;;;;;5.00;3.88;;;;;;;;;;5095942;28;20201;-65
2023/08/25 12:41:41;;;;;;;5.13;3.70;;;;;;;;;;5095549;28;20225;-66
2023/08/25 12:44:10;;;;;;;4.25;3.30;;;;;;;;;;5095785;28;20193;-67
2023/08/25 12:46:37;;;;;;;4.43;3.97;;;;;;;;;;5096275;28;20568;-68
2023/08/25 12:49:05;;;;;;;3.72;3.42;;;;;;;;;;5099853;28;20204;-67
2023/08/25 12:51:35;;;;;;;3.95;3.30;;;;;;;;;;5097122;28;20275;-68
2023/08/25 12:54:13;;;;;;;4.30;3.90;;;;;;;;;;5090160;28;20209;-69
2023/08/25 12:56:42;;;;;;;5.60;3.13;;;;;;;;;;5100508;28;20254;-69
2023/08/25 12:59:10;;;;;;;11.73;4.82;;;;;;;;;;5100117;28;20262;-70
2023/08/25 13:01:38;;;;;;;11.13;4.03;;;;;;;;;;5100341;28;20696;-68
2023/08/25 13:04:06;;;;;;;5.25;3.33;;;;;;;;;;5097149;28;20197;-70
2023/08/25 13:06:35;;;;;;;5.95;3.40;;;;;;;;;;5098656;28;20225;-68
2023/08/25 13:09:04;;;;;;;3.63;3.20;;;;;;;;;;5105203;28;20197;-69
2023/08/25 13:11:32;;;;;;;3.70;3.40;;;;;;;;;;5105769;28;20225;-70
2023/08/25 13:14:00;;;;;;;5.68;3.15;;;;;;;;;;5100529;28;20201;-69
2023/08/25 13:16:28;;;;;;;3.72;3.42;;;;;;;;;;5101495;28;20205;-68
2023/08/25 13:18:57;;;;;;;4.38;3.40;;;;;;;;;;5099276;28;20623;-67
2023/08/25 13:21:25;;;;;;;5.78;3.40;;;;;;;;;;5101304;28;20217;-69
2023/08/25 13:23:54;;;;;;;4.65;3.55;;;;;;;;;;5100636;28;20201;-68
2023/08/25 13:26:35;;;;;;;4.78;3.10;;;;;;;;;;5100607;28;20209;-67
2023/08/25 13:29:03;;;;;;;5.10;3.45;;;;;;;;;;5100835;28;20251;-67
2023/08/25 13:31:31;;;;;;;5.10;3.58;;;;;;;;;;5100862;28;20631;-68
2023/08/25 13:33:59;;;;;;;4.05;3.25;;;;;;;;;;5097925;28;20641;-67
2023/08/25 13:36:28;;;;;;;8.50;3.75;;;;;;;;;;5098049;28;20197;-67
2023/08/25 13:38:57;;;;;;;7.45;3.10;;;;;;;;;;5100028;28;20197;-67
2023/08/25 13:41:29;;;;;;;3.42;3.13;;;;;;;;;;5100119;28;20341;-68
2023/08/25 13:43:57;;;;;;;4.40;3.22;;;;;;;;;;5098831;28;20205;-68
2023/08/25 13:46:25;;;;;;;3.55;3.25;;;;;;;;;;5100523;28;20201;-68
2023/08/25 13:48:53;;;;;;;5.97;3.55;;;;;;;;;;5087253;28;20205;-67
2023/08/25 13:51:21;;;;;;;4.30;3.42;;;;;;;;;;5102073;28;20228;-69
2023/08/25 13:53:50;;;;;;;3.20;2.90;;;;;;;;;;5100783;28;20205;-69
2023/08/25 13:56:19;;;;;;;3.83;3.33;;;;;;;;;;5100775;28;20292;-68
2023/08/25 13:58:48;;;;;;;7.40;2.80;;;;;;;;;;5099107;28;20209;-68
2023/08/25 14:01:19;;;;;;;3.20;2.97;;;;;;;;;;5094512;28;20720;-68
2023/08/25 14:03:47;;;;;;;3.85;3.03;;;;;;;;;;5110904;28;20227;-70
2023/08/25 14:06:15;;;;;;;4.40;3.03;;;;;;;;;;5100611;28;20216;-67
2023/08/25 14:08:45;;;;;;;5.18;3.50;;;;;;;;;;5092178;28;20652;-69
2023/08/25 14:11:13;;;;;;;6.25;3.33;;;;;;;;;;5089805;28;20221;-67
2023/08/25 14:13:42;;;;;;;3.75;3.42;;;;;;;;;;5100143;28;20661;-69
2023/08/25 14:16:10;;;;;;;6.45;3.72;;;;;;;;;;5100409;28;20216;-69
2023/08/25 14:18:38;;;;;;;4.00;3.63;;;;;;;;;;5099405;28;20202;-69
2023/08/25 14:21:06;;;;;;;5.18;3.38;;;;;;;;;;5100259;28;20279;-68
2023/08/25 14:23:34;;;;;;;4.00;3.00;;;;;;;;;;5100073;28;20213;-69
2023/08/25 14:26:02;;;;;;;4.30;3.90;;;;;;;;;;5099975;28;20205;-68
2023/08/25 14:28:30;;;;;;;4.97;3.72;;;;;;;;;;5100283;28;20212;-69
2023/08/25 14:31:00;;;;;;;5.10;4.30;;;;;;;;;;5099583;28;20229;-69
2023/08/25 14:33:28;;;;;;;10.20;3.83;;;;;;;;;;5096762;28;20576;-71
2023/08/25 14:35:55;;;;;;;5.25;3.75;;;;;;;;;;5098949;28;20243;-69
2023/08/25 14:38:27;;;;;;;5.43;4.18;;;;;;;;;;5098041;28;20229;-69
2023/08/25 14:40:55;;;;;;;7.00;3.55;;;;;;;;;;5099595;28;20633;-70
2023/08/25 14:43:23;;;;;;;8.55;3.70;;;;;;;;;;5097922;28;20354;-69
2023/08/25 14:45:51;;;;;;;10.50;4.13;;;;;;;;;;5098420;28;20201;-69
2023/08/25 14:48:20;;;;;;;5.47;4.05;;;;;;;;;;5098389;28;20236;-69
2023/08/25 14:50:55;;;;;;;5.55;4.20;;;;;;;;;;5098551;28;20232;-69
2023/08/25 14:53:23;;;;;;;5.43;4.18;;;;;;;;;;5098535;28;20277;-69
2023/08/25 14:55:51;;;;;;;8.13;4.25;;;;;;;;;;5098159;28;20227;-68
2023/08/25 14:58:19;;;;;;;10.93;4.72;;;;;;;;;;5098718;28;20202;-69
2023/08/25 15:00:47;;;;;;;5.22;4.28;;;;;;;;;;5098170;28;20229;-69